OTBH/IUD METAR and TAF weather

Enter ICAO airport designator
Station Type Date Time Source
OTBH METAR 2020/05/30 05:56 UTC NOAA

OTBH 300556Z 30009KT 9999 CLR 37/19 A2966 RMK AO2A SLP044 T03720187 10372 20268 52015 $


Station Type Date Time Source
OTBH Decoded METAR 2020/05/30 05:56 UTC NOAA

Station name not available
May 30, 2020 - 01:56 AM EDT / 2020.05.30 0556 UTC
Wind: from the WNW (300 degrees) at 10 MPH (9 KT):0
Visibility: greater than 7 mile(s):0
Sky conditions: clear
Temperature: 99.0 F (37.2 C)
Heat index: 102.4 F (39.1 C):1
Dew Point: 65.7 F (18.7 C)
Relative Humidity: 33%
Pressure (altimeter): 29.66 in. Hg (1004 hPa)
Pressure tendency: 0.04 inches (1.5 hPa) higher than three hours ago
ob: OTBH 300556Z 30009KT 9999 CLR 37/19 A2966 RMK AO2A SLP044 T03720187 10372 20268 52015
cycle: 6

Station Type Date Time Source
OTBH TAF 2020/05/29 16:36 UTC NOAA

TAF TAF OTBH 291530Z 2916/3022 VRB06KT 9999 SKC QNH2955INS
BECMG 3004/3005 33012KT 9000 HZ FEW180 QNH2960INS
BECMG 3015/3016 29009KT 9999 NSW SKC QNH2956INS TX44/3011Z TN27/3002Z

Example: see airport list